sensor_id;sensor_type;location;lat;lon;timestamp;temperature;humidity
77277;DHT22;66330;52.166;9.978;2023-05-10T00:00:12;15.40;46.10
77277;DHT22;66330;52.166;9.978;2023-05-10T00:02:37;14.90;45.90
77277;DHT22;66330;52.166;9.978;2023-05-10T00:05:04;15.30;46.30
77277;DHT22;66330;52.166;9.978;2023-05-10T00:07:30;16.20;46.90
77277;DHT22;66330;52.166;9.978;2023-05-10T00:09:56;15.40;46.30
77277;DHT22;66330;52.166;9.978;2023-05-10T00:12:21;15.30;46.20
77277;DHT22;66330;52.166;9.978;2023-05-10T00:14:47;15.30;46.40
77277;DHT22;66330;52.166;9.978;2023-05-10T00:17:13;15.30;46.60
77277;DHT22;66330;52.166;9.978;2023-05-10T00:19:39;15.40;46.80
77277;DHT22;66330;52.166;9.978;2023-05-10T00:22:05;15.30;46.70
77277;DHT22;66330;52.166;9.978;2023-05-10T00:24:30;15.30;46.50
77277;DHT22;66330;52.166;9.978;2023-05-10T00:26:56;15.40;46.90
77277;DHT22;66330;52.166;9.978;2023-05-10T00:29:21;15.30;46.40
77277;DHT22;66330;52.166;9.978;2023-05-10T00:31:47;15.30;46.80
77277;DHT22;66330;52.166;9.978;2023-05-10T00:34:12;15.30;46.80
77277;DHT22;66330;52.166;9.978;2023-05-10T00:36:38;15.40;46.90
77277;DHT22;66330;52.166;9.978;2023-05-10T00:39:04;15.00;46.70
77277;DHT22;66330;52.166;9.978;2023-05-10T00:41:30;15.60;46.90
77277;DHT22;66330;52.166;9.978;2023-05-10T00:43:58;14.90;46.60
77277;DHT22;66330;52.166;9.978;2023-05-10T00:46:24;15.40;47.30
77277;DHT22;66330;52.166;9.978;2023-05-10T00:48:51;14.90;46.90
77277;DHT22;66330;52.166;9.978;2023-05-10T00:51:17;15.10;47.10
77277;DHT22;66330;52.166;9.978;2023-05-10T00:53:44;15.40;47.30
77277;DHT22;66330;52.166;9.978;2023-05-10T00:56:11;14.80;46.50
77277;DHT22;66330;52.166;9.978;2023-05-10T00:58:36;14.80;47.00
77277;DHT22;66330;52.166;9.978;2023-05-10T01:01:02;15.30;47.50
77277;DHT22;66330;52.166;9.978;2023-05-10T01:03:28;15.30;47.30
77277;DHT22;66330;52.166;9.978;2023-05-10T01:05:54;15.10;47.60
77277;DHT22;66330;52.166;9.978;2023-05-10T01:08:20;15.20;47.80
77277;DHT22;66330;52.166;9.978;2023-05-10T01:10:47;14.60;47.50
77277;DHT22;66330;52.166;9.978;2023-05-10T01:13:31;14.90;47.70
77277;DHT22;66330;52.166;9.978;2023-05-10T01:15:58;14.90;47.80
77277;DHT22;66330;52.166;9.978;2023-05-10T01:18:27;15.00;48.00
77277;DHT22;66330;52.166;9.978;2023-05-10T01:24:23;14.40;47.80
77277;DHT22;66330;52.166;9.978;2023-05-10T01:34:46;14.20;48.00
77277;DHT22;66330;52.166;9.978;2023-05-10T01:37:19;14.30;48.80
77277;DHT22;66330;52.166;9.978;2023-05-10T01:39:53;14.00;48.20
77277;DHT22;66330;52.166;9.978;2023-05-10T01:42:23;14.20;48.10
77277;DHT22;66330;52.166;9.978;2023-05-10T01:45:00;14.80;48.50
77277;DHT22;66330;52.166;9.978;2023-05-10T01:47:40;14.60;48.90
77277;DHT22;66330;52.166;9.978;2023-05-10T01:50:15;14.20;48.70
77277;DHT22;66330;52.166;9.978;2023-05-10T01:52:49;14.20;48.80
77277;DHT22;66330;52.166;9.978;2023-05-10T01:55:17;14.70;49.30
77277;DHT22;66330;52.166;9.978;2023-05-10T01:57:44;14.80;49.40
77277;DHT22;66330;52.166;9.978;2023-05-10T02:00:12;14.80;49.50
77277;DHT22;66330;52.166;9.978;2023-05-10T02:02:40;14.20;49.10
77277;DHT22;66330;52.166;9.978;2023-05-10T02:05:08;14.20;49.10
77277;DHT22;66330;52.166;9.978;2023-05-10T02:07:36;14.20;48.80
77277;DHT22;66330;52.166;9.978;2023-05-10T02:10:04;14.50;49.30
77277;DHT22;66330;52.166;9.978;2023-05-10T02:12:32;14.30;49.30
77277;DHT22;66330;52.166;9.978;2023-05-10T02:15:02;14.30;49.40
77277;DHT22;66330;52.166;9.978;2023-05-10T02:17:28;14.20;49.30
77277;DHT22;66330;52.166;9.978;2023-05-10T02:19:56;14.30;49.40
77277;DHT22;66330;52.166;9.978;2023-05-10T02:22:23;14.40;49.20
77277;DHT22;66330;52.166;9.978;2023-05-10T02:24:50;14.90;50.00
77277;DHT22;66330;52.166;9.978;2023-05-10T02:27:17;14.80;49.50
77277;DHT22;66330;52.166;9.978;2023-05-10T02:29:44;14.90;49.80
77277;DHT22;66330;52.166;9.978;2023-05-10T02:32:10;14.80;49.50
77277;DHT22;66330;52.166;9.978;2023-05-10T02:34:37;14.90;50.20
77277;DHT22;66330;52.166;9.978;2023-05-10T02:37:04;14.90;50.20
77277;DHT22;66330;52.166;9.978;2023-05-10T02:39:31;14.30;49.80
77277;DHT22;66330;52.166;9.978;2023-05-10T02:41:58;14.40;49.90
77277;DHT22;66330;52.166;9.978;2023-05-10T02:44:26;14.40;49.90
77277;DHT22;66330;52.166;9.978;2023-05-10T02:46:53;15.10;50.50
77277;DHT22;66330;52.166;9.978;2023-05-10T02:49:21;14.90;50.70
77277;DHT22;66330;52.166;9.978;2023-05-10T02:51:58;14.90;50.40
77277;DHT22;66330;52.166;9.978;2023-05-10T02:54:31;14.60;50.20
77277;DHT22;66330;52.166;9.978;2023-05-10T02:57:00;15.10;50.60
77277;DHT22;66330;52.166;9.978;2023-05-10T02:59:26;14.80;50.40
77277;DHT22;66330;52.166;9.978;2023-05-10T03:01:52;14.90;50.20
77277;DHT22;66330;52.166;9.978;2023-05-10T03:04:18;15.10;50.60
77277;DHT22;66330;52.166;9.978;2023-05-10T03:06:44;15.00;50.60
77277;DHT22;66330;52.166;9.978;2023-05-10T03:09:10;15.40;51.10
77277;DHT22;66330;52.166;9.978;2023-05-10T03:12:01;13.10;48.90
77277;DHT22;66330;52.166;9.978;2023-05-10T03:22:23;15.00;51.00
77277;DHT22;66330;52.166;9.978;2023-05-10T03:24:49;15.10;51.70
77277;DHT22;66330;52.166;9.978;2023-05-10T03:27:17;15.00;51.90
77277;DHT22;66330;52.166;9.978;2023-05-10T03:29:44;14.50;51.70
77277;DHT22;66330;52.166;9.978;2023-05-10T03:32:11;14.60;52.10
77277;DHT22;66330;52.166;9.978;2023-05-10T03:34:41;14.40;51.70
77277;DHT22;66330;52.166;9.978;2023-05-10T03:37:08;14.70;52.60
77277;DHT22;66330;52.166;9.978;2023-05-10T03:39:33;14.80;52.90
77277;DHT22;66330;52.166;9.978;2023-05-10T03:41:59;14.90;53.30
77277;DHT22;66330;52.166;9.978;2023-05-10T03:44:24;14.70;53.30
77277;DHT22;66330;52.166;9.978;2023-05-10T03:46:50;14.80;54.10
77277;DHT22;66330;52.166;9.978;2023-05-10T03:49:15;14.70;54.20
77277;DHT22;66330;52.166;9.978;2023-05-10T03:51:41;14.70;54.70
77277;DHT22;66330;52.166;9.978;2023-05-10T03:54:07;14.90;54.90
77277;DHT22;66330;52.166;9.978;2023-05-10T03:56:32;14.50;54.90
77277;DHT22;66330;52.166;9.978;2023-05-10T03:58:58;15.00;56.10
77277;DHT22;66330;52.166;9.978;2023-05-10T04:01:23;14.40;55.50
77277;DHT22;66330;52.166;9.978;2023-05-10T04:03:49;15.10;56.40
77277;DHT22;66330;52.166;9.978;2023-05-10T04:06:14;14.40;55.80
77277;DHT22;66330;52.166;9.978;2023-05-10T04:08:40;14.90;56.20
77277;DHT22;66330;52.166;9.978;2023-05-10T04:11:10;14.70;56.50
77277;DHT22;66330;52.166;9.978;2023-05-10T04:13:36;14.90;56.70
77277;DHT22;66330;52.166;9.978;2023-05-10T04:16:02;14.40;56.30
77277;DHT22;66330;52.166;9.978;2023-05-10T04:18:28;14.90;56.70
77277;DHT22;66330;52.166;9.978;2023-05-10T04:20:53;14.50;56.70
77277;DHT22;66330;52.166;9.978;2023-05-10T04:23:19;14.90;56.70
77277;DHT22;66330;52.166;9.978;2023-05-10T04:25:45;14.70;56.60
77277;DHT22;66330;52.166;9.978;2023-05-10T04:28:10;14.60;57.10
77277;DHT22;66330;52.166;9.978;2023-05-10T04:30:36;14.50;56.90
77277;DHT22;66330;52.166;9.978;2023-05-10T04:33:01;14.90;58.10
77277;DHT22;66330;52.166;9.978;2023-05-10T04:35:27;14.90;57.40
77277;DHT22;66330;52.166;9.978;2023-05-10T04:37:53;15.10;57.80
77277;DHT22;66330;52.166;9.978;2023-05-10T04:40:19;14.90;57.80
77277;DHT22;66330;52.166;9.978;2023-05-10T04:42:45;15.20;58.50
77277;DHT22;66330;52.166;9.978;2023-05-10T04:45:11;15.10;58.30
77277;DHT22;66330;52.166;9.978;2023-05-10T04:47:36;15.20;58.50
77277;DHT22;66330;52.166;9.978;2023-05-10T04:50:03;14.70;57.80
77277;DHT22;66330;52.166;9.978;2023-05-10T04:52:28;14.70;58.40
77277;DHT22;66330;52.166;9.978;2023-05-10T04:54:54;15.70;59.40
77277;DHT22;66330;52.166;9.978;2023-05-10T04:57:20;15.00;59.00
77277;DHT22;66330;52.166;9.978;2023-05-10T04:59:45;14.60;58.80
77277;DHT22;66330;52.166;9.978;2023-05-10T05:02:11;14.40;58.90
77277;DHT22;66330;52.166;9.978;2023-05-10T05:04:36;14.70;59.30
77277;DHT22;66330;52.166;9.978;2023-05-10T05:07:02;14.90;59.70
77277;DHT22;66330;52.166;9.978;2023-05-10T05:09:27;14.20;59.20
77277;DHT22;66330;52.166;9.978;2023-05-10T05:11:53;14.70;59.50
77277;DHT22;66330;52.166;9.978;2023-05-10T05:14:19;14.20;59.90
77277;DHT22;66330;52.166;9.978;2023-05-10T05:16:46;14.60;60.40
77277;DHT22;66330;52.166;9.978;2023-05-10T05:19:11;14.50;60.70
77277;DHT22;66330;52.166;9.978;2023-05-10T05:21:37;14.20;60.70
77277;DHT22;66330;52.166;9.978;2023-05-10T05:24:03;14.60;61.50
77277;DHT22;66330;52.166;9.978;2023-05-10T05:26:29;14.00;61.30
77277;DHT22;66330;52.166;9.978;2023-05-10T05:28:54;13.90;61.50
77277;DHT22;66330;52.166;9.978;2023-05-10T05:31:20;13.80;62.30
77277;DHT22;66330;52.166;9.978;2023-05-10T05:33:46;14.20;63.00
77277;DHT22;66330;52.166;9.978;2023-05-10T05:36:11;14.20;63.50
77277;DHT22;66330;52.166;9.978;2023-05-10T05:38:37;13.80;63.10
77277;DHT22;66330;52.166;9.978;2023-05-10T05:41:03;14.20;64.20
77277;DHT22;66330;52.166;9.978;2023-05-10T05:43:28;13.80;63.90
77277;DHT22;66330;52.166;9.978;2023-05-10T05:45:54;13.20;63.70
77277;DHT22;66330;52.166;9.978;2023-05-10T05:48:20;14.30;65.20
77277;DHT22;66330;52.166;9.978;2023-05-10T05:50:46;13.60;64.70
77277;DHT22;66330;52.166;9.978;2023-05-10T05:53:11;14.30;65.60
77277;DHT22;66330;52.166;9.978;2023-05-10T05:55:37;14.30;65.80
77277;DHT22;66330;52.166;9.978;2023-05-10T05:58:03;14.30;66.10
77277;DHT22;66330;52.166;9.978;2023-05-10T06:00:28;14.40;66.50
77277;DHT22;66330;52.166;9.978;2023-05-10T06:02:54;14.50;66.80
77277;DHT22;66330;52.166;9.978;2023-05-10T06:05:19;14.40;67.20
77277;DHT22;66330;52.166;9.978;2023-05-10T06:07:46;14.40;67.70
77277;DHT22;66330;52.166;9.978;2023-05-10T06:10:11;14.40;68.10
77277;DHT22;66330;52.166;9.978;2023-05-10T06:12:37;14.30;68.40
77277;DHT22;66330;52.166;9.978;2023-05-10T06:15:03;14.00;68.20
77277;DHT22;66330;52.166;9.978;2023-05-10T06:17:29;13.90;68.30
77277;DHT22;66330;52.166;9.978;2023-05-10T06:19:55;14.30;68.80
77277;DHT22;66330;52.166;9.978;2023-05-10T06:22:21;13.90;68.70
77277;DHT22;66330;52.166;9.978;2023-05-10T06:24:48;14.30;69.10
77277;DHT22;66330;52.166;9.978;2023-05-10T06:27:14;14.40;69.60
77277;DHT22;66330;52.166;9.978;2023-05-10T06:29:39;14.00;69.30
77277;DHT22;66330;52.166;9.978;2023-05-10T06:32:05;14.50;69.50
77277;DHT22;66330;52.166;9.978;2023-05-10T06:34:30;13.70;69.10
77277;DHT22;66330;52.166;9.978;2023-05-10T06:36:56;14.40;70.60
77277;DHT22;66330;52.166;9.978;2023-05-10T06:39:22;14.40;70.20
77277;DHT22;66330;52.166;9.978;2023-05-10T06:41:47;14.30;70.50
77277;DHT22;66330;52.166;9.978;2023-05-10T06:44:13;14.50;71.20
77277;DHT22;66330;52.166;9.978;2023-05-10T06:46:39;14.00;70.70
77277;DHT22;66330;52.166;9.978;2023-05-10T06:49:04;14.60;71.50
77277;DHT22;66330;52.166;9.978;2023-05-10T06:51:30;13.90;70.70
77277;DHT22;66330;52.166;9.978;2023-05-10T06:53:56;14.40;71.80
77277;DHT22;66330;52.166;9.978;2023-05-10T06:56:21;14.50;72.20
77277;DHT22;66330;52.166;9.978;2023-05-10T06:58:47;14.30;72.10
77277;DHT22;66330;52.166;9.978;2023-05-10T07:01:13;14.70;72.80
77277;DHT22;66330;52.166;9.978;2023-05-10T07:03:39;14.00;72.30
77277;DHT22;66330;52.166;9.978;2023-05-10T07:06:04;14.70;73.00
77277;DHT22;66330;52.166;9.978;2023-05-10T07:08:31;14.20;72.70
77277;DHT22;66330;52.166;9.978;2023-05-10T07:11:04;14.70;73.00
77277;DHT22;66330;52.166;9.978;2023-05-10T07:13:31;14.30;73.10
77277;DHT22;66330;52.166;9.978;2023-05-10T07:15:57;14.90;73.70
77277;DHT22;66330;52.166;9.978;2023-05-10T07:18:23;14.90;73.70
77277;DHT22;66330;52.166;9.978;2023-05-10T07:20:49;14.90;73.80
77277;DHT22;66330;52.166;9.978;2023-05-10T07:23:14;14.80;73.80
77277;DHT22;66330;52.166;9.978;2023-05-10T07:25:40;14.90;73.80
77277;DHT22;66330;52.166;9.978;2023-05-10T07:28:05;15.10;74.10
77277;DHT22;66330;52.166;9.978;2023-05-10T07:30:31;14.70;73.50
77277;DHT22;66330;52.166;9.978;2023-05-10T07:32:56;15.20;74.00
77277;DHT22;66330;52.166;9.978;2023-05-10T07:35:22;14.80;73.10
77277;DHT22;66330;52.166;9.978;2023-05-10T07:37:48;15.30;74.30
77277;DHT22;66330;52.166;9.978;2023-05-10T07:40:13;15.20;74.30
77277;DHT22;66330;52.166;9.978;2023-05-10T07:42:39;15.40;74.60
77277;DHT22;66330;52.166;9.978;2023-05-10T07:45:04;15.50;74.80
77277;DHT22;66330;52.166;9.978;2023-05-10T07:47:30;14.90;74.20
77277;DHT22;66330;52.166;9.978;2023-05-10T07:49:56;15.50;74.80
77277;DHT22;66330;52.166;9.978;2023-05-10T07:52:21;15.00;74.90
77277;DHT22;66330;52.166;9.978;2023-05-10T07:54:47;15.60;75.80
77277;DHT22;66330;52.166;9.978;2023-05-10T07:57:13;15.10;74.60
77277;DHT22;66330;52.166;9.978;2023-05-10T07:59:40;15.30;75.30
77277;DHT22;66330;52.166;9.978;2023-05-10T08:02:06;15.20;75.10
77277;DHT22;66330;52.166;9.978;2023-05-10T08:04:32;15.60;75.30
77277;DHT22;66330;52.166;9.978;2023-05-10T08:06:57;15.90;75.90
77277;DHT22;66330;52.166;9.978;2023-05-10T08:09:23;15.60;76.00
77277;DHT22;66330;52.166;9.978;2023-05-10T08:11:49;15.60;76.10
77277;DHT22;66330;52.166;9.978;2023-05-10T08:14:16;15.60;76.00
77277;DHT22;66330;52.166;9.978;2023-05-10T08:16:41;15.70;76.50
77277;DHT22;66330;52.166;9.978;2023-05-10T08:19:07;15.10;76.00
77277;DHT22;66330;52.166;9.978;2023-05-10T08:21:33;15.20;76.20
77277;DHT22;66330;52.166;9.978;2023-05-10T08:23:58;15.50;77.40
77277;DHT22;66330;52.166;9.978;2023-05-10T08:26:24;15.20;76.30
77277;DHT22;66330;52.166;9.978;2023-05-10T08:28:49;15.20;76.20
77277;DHT22;66330;52.166;9.978;2023-05-10T08:31:15;15.70;76.70
77277;DHT22;66330;52.166;9.978;2023-05-10T08:33:41;15.70;76.90
77277;DHT22;66330;52.166;9.978;2023-05-10T08:36:07;15.80;76.90
77277;DHT22;66330;52.166;9.978;2023-05-10T08:38:32;15.30;76.10
77277;DHT22;66330;52.166;9.978;2023-05-10T08:40:58;15.40;76.70
77277;DHT22;66330;52.166;9.978;2023-05-10T08:43:28;15.30;76.40
77277;DHT22;66330;52.166;9.978;2023-05-10T08:45:55;15.80;77.30
77277;DHT22;66330;52.166;9.978;2023-05-10T08:48:23;13.10;74.30
77277;DHT22;66330;52.166;9.978;2023-05-10T08:50:49;15.40;76.90
77277;DHT22;66330;52.166;9.978;2023-05-10T08:53:18;15.70;77.30
77277;DHT22;66330;52.166;9.978;2023-05-10T08:55:44;16.00;77.80
77277;DHT22;66330;52.166;9.978;2023-05-10T08:58:10;16.00;77.70
77277;DHT22;66330;52.166;9.978;2023-05-10T09:00:36;16.10;77.90
77277;DHT22;66330;52.166;9.978;2023-05-10T09:03:04;15.80;77.30
77277;DHT22;66330;52.166;9.978;2023-05-10T09:05:30;15.90;77.70
77277;DHT22;66330;52.166;9.978;2023-05-10T09:07:56;16.00;77.70
77277;DHT22;66330;52.166;9.978;2023-05-10T09:10:22;16.00;77.10
77277;DHT22;66330;52.166;9.978;2023-05-10T09:12:51;16.00;77.10
77277;DHT22;66330;52.166;9.978;2023-05-10T09:15:17;16.10;77.40
77277;DHT22;66330;52.166;9.978;2023-05-10T09:17:44;16.50;78.20
77277;DHT22;66330;52.166;9.978;2023-05-10T09:20:10;16.00;77.50
77277;DHT22;66330;52.166;9.978;2023-05-10T09:22:36;16.30;77.30
77277;DHT22;66330;52.166;9.978;2023-05-10T09:25:10;16.00;76.40
77277;DHT22;66330;52.166;9.978;2023-05-10T09:27:45;16.10;76.20
77277;DHT22;66330;52.166;9.978;2023-05-10T09:30:23;16.10;76.00
77277;DHT22;66330;52.166;9.978;2023-05-10T09:32:50;16.20;76.00
77277;DHT22;66330;52.166;9.978;2023-05-10T09:35:17;16.70;76.30
77277;DHT22;66330;52.166;9.978;2023-05-10T09:37:45;16.10;74.90
77277;DHT22;66330;52.166;9.978;2023-05-10T09:40:19;16.50;76.20
77277;DHT22;66330;52.166;9.978;2023-05-10T09:45:23;15.50;75.30
77277;DHT22;66330;52.166;9.978;2023-05-10T09:47:49;16.70;75.90
77277;DHT22;66330;52.166;9.978;2023-05-10T09:50:15;16.70;76.40
77277;DHT22;66330;52.166;9.978;2023-05-10T09:55:12;16.30;75.90
77277;DHT22;66330;52.166;9.978;2023-05-10T09:57:38;16.00;75.50
77277;DHT22;66330;52.166;9.978;2023-05-10T10:00:05;16.40;75.80
77277;DHT22;66330;52.166;9.978;2023-05-10T10:02:31;16.90;76.20
77277;DHT22;66330;52.166;9.978;2023-05-10T10:04:57;16.60;75.40
77277;DHT22;66330;52.166;9.978;2023-05-10T10:07:23;17.10;75.70
77277;DHT22;66330;52.166;9.978;2023-05-10T10:09:53;17.10;75.20
77277;DHT22;66330;52.166;9.978;2023-05-10T10:12:20;17.20;75.40
77277;DHT22;66330;52.166;9.978;2023-05-10T10:14:49;17.30;75.30
77277;DHT22;66330;52.166;9.978;2023-05-10T10:17:16;16.90;74.70
77277;DHT22;66330;52.166;9.978;2023-05-10T10:19:42;17.20;75.00
77277;DHT22;66330;52.166;9.978;2023-05-10T10:22:08;17.00;74.40
77277;DHT22;66330;52.166;9.978;2023-05-10T10:24:37;17.60;74.70
77277;DHT22;66330;52.166;9.978;2023-05-10T10:27:28;17.80;74.10
77277;DHT22;66330;52.166;9.978;2023-05-10T10:33:17;17.40;73.00
77277;DHT22;66330;52.166;9.978;2023-05-10T10:35:50;17.70;72.90
77277;DHT22;66330;52.166;9.978;2023-05-10T10:38:17;17.50;72.50
77277;DHT22;66330;52.166;9.978;2023-05-10T10:40:43;18.00;72.90
77277;DHT22;66330;52.166;9.978;2023-05-10T10:43:21;18.10;72.40
77277;DHT22;66330;52.166;9.978;2023-05-10T10:48:39;17.90;70.80
77277;DHT22;66330;52.166;9.978;2023-05-10T10:51:05;17.80;70.50
77277;DHT22;66330;52.166;9.978;2023-05-10T10:53:30;17.80;70.50
77277;DHT22;66330;52.166;9.978;2023-05-10T10:56:11;17.60;70.20
77277;DHT22;66330;52.166;9.978;2023-05-10T10:58:38;18.40;70.60
77277;DHT22;66330;52.166;9.978;2023-05-10T11:03:39;17.30;69.00
77277;DHT22;66330;52.166;9.978;2023-05-10T11:06:05;17.90;69.20
77277;DHT22;66330;52.166;9.978;2023-05-10T11:08:32;17.90;69.20
77277;DHT22;66330;52.166;9.978;2023-05-10T11:16:14;18.20;68.50
77277;DHT22;66330;52.166;9.978;2023-05-10T11:18:41;18.40;68.10
77277;DHT22;66330;52.166;9.978;2023-05-10T11:21:16;19.00;68.20
77277;DHT22;66330;52.166;9.978;2023-05-10T11:23:54;18.70;67.60
77277;DHT22;66330;52.166;9.978;2023-05-10T11:26:22;18.90;67.30
77277;DHT22;66330;52.166;9.978;2023-05-10T11:28:50;19.40;67.00
77277;DHT22;66330;52.166;9.978;2023-05-10T11:31:17;19.50;66.40
77277;DHT22;66330;52.166;9.978;2023-05-10T11:33:47;20.00;66.50
77277;DHT22;66330;52.166;9.978;2023-05-10T11:36:39;19.80;65.50
77277;DHT22;66330;52.166;9.978;2023-05-10T11:39:05;20.50;66.00
77277;DHT22;66330;52.166;9.978;2023-05-10T11:41:31;20.40;64.40
77277;DHT22;66330;52.166;9.978;2023-05-10T11:43:58;21.40;65.00
77277;DHT22;66330;52.166;9.978;2023-05-10T11:46:26;21.30;64.00
77277;DHT22;66330;52.166;9.978;2023-05-10T11:48:59;22.20;63.60
77277;DHT22;66330;52.166;9.978;2023-05-10T11:51:27;22.00;61.40
77277;DHT22;66330;52.166;9.978;2023-05-10T11:53:54;22.50;60.80
77277;DHT22;66330;52.166;9.978;2023-05-10T11:56:19;23.50;60.70
77277;DHT22;66330;52.166;9.978;2023-05-10T11:58:54;23.70;59.60
77277;DHT22;66330;52.166;9.978;2023-05-10T12:01:21;25.60;59.60
77277;DHT22;66330;52.166;9.978;2023-05-10T12:03:47;25.20;58.50
77277;DHT22;66330;52.166;9.978;2023-05-10T12:06:13;25.30;56.70
77277;DHT22;66330;52.166;9.978;2023-05-10T12:08:44;25.40;55.30
77277;DHT22;66330;52.166;9.978;2023-05-10T12:11:12;25.50;55.00
77277;DHT22;66330;52.166;9.978;2023-05-10T12:13:40;25.50;54.60
77277;DHT22;66330;52.166;9.978;2023-05-10T12:16:28;25.40;53.80
77277;DHT22;66330;52.166;9.978;2023-05-10T12:18:57;25.00;53.30
77277;DHT22;66330;52.166;9.978;2023-05-10T12:21:23;25.00;53.40
77277;DHT22;66330;52.166;9.978;2023-05-10T12:23:59;24.80;53.20
77277;DHT22;66330;52.166;9.978;2023-05-10T12:26:25;24.90;53.30
77277;DHT22;66330;52.166;9.978;2023-05-10T12:28:55;24.40;53.70
77277;DHT22;66330;52.166;9.978;2023-05-10T12:31:20;24.70;53.20
77277;DHT22;66330;52.166;9.978;2023-05-10T12:33:46;24.30;52.80
77277;DHT22;66330;52.166;9.978;2023-05-10T12:36:16;23.30;52.30
77277;DHT22;66330;52.166;9.978;2023-05-10T12:38:44;23.30;52.90
77277;DHT22;66330;52.166;9.978;2023-05-10T12:41:14;22.80;53.10
77277;DHT22;66330;52.166;9.978;2023-05-10T12:43:40;22.50;53.30
77277;DHT22;66330;52.166;9.978;2023-05-10T12:46:11;22.30;53.80
77277;DHT22;66330;52.166;9.978;2023-05-10T12:48:38;21.20;54.00
77277;DHT22;66330;52.166;9.978;2023-05-10T12:51:04;21.00;55.30
77277;DHT22;66330;52.166;9.978;2023-05-10T12:53:30;20.00;55.80
77277;DHT22;66330;52.166;9.978;2023-05-10T12:55:56;19.80;57.00
77277;DHT22;66330;52.166;9.978;2023-05-10T12:58:22;19.00;57.80
77277;DHT22;66330;52.166;9.978;2023-05-10T13:00:47;18.80;59.00
77277;DHT22;66330;52.166;9.978;2023-05-10T13:03:13;18.50;59.70
77277;DHT22;66330;52.166;9.978;2023-05-10T13:05:39;18.70;61.10
77277;DHT22;66330;52.166;9.978;2023-05-10T13:08:04;18.60;62.00
77277;DHT22;66330;52.166;9.978;2023-05-10T13:10:31;18.50;62.30
77277;DHT22;66330;52.166;9.978;2023-05-10T13:12:57;18.90;63.10
77277;DHT22;66330;52.166;9.978;2023-05-10T13:15:24;18.90;63.50
77277;DHT22;66330;52.166;9.978;2023-05-10T13:17:50;18.50;63.30
77277;DHT22;66330;52.166;9.978;2023-05-10T13:20:16;19.10;63.90
77277;DHT22;66330;52.166;9.978;2023-05-10T13:22:44;18.70;63.50
77277;DHT22;66330;52.166;9.978;2023-05-10T13:25:11;19.40;64.20
77277;DHT22;66330;52.166;9.978;2023-05-10T13:27:39;19.50;63.90
77277;DHT22;66330;52.166;9.978;2023-05-10T13:30:05;20.00;64.00
77277;DHT22;66330;52.166;9.978;2023-05-10T13:32:31;19.40;63.00
77277;DHT22;66330;52.166;9.978;2023-05-10T13:34:56;19.40;62.60
77277;DHT22;66330;52.166;9.978;2023-05-10T13:37:22;20.10;63.40
77277;DHT22;66330;52.166;9.978;2023-05-10T13:39:48;19.50;62.90
77277;DHT22;66330;52.166;9.978;2023-05-10T13:42:13;19.80;63.30
77277;DHT22;66330;52.166;9.978;2023-05-10T13:44:39;19.70;63.30
77277;DHT22;66330;52.166;9.978;2023-05-10T13:47:05;20.40;63.90
77277;DHT22;66330;52.166;9.978;2023-05-10T13:49:31;19.70;62.70
77277;DHT22;66330;52.166;9.978;2023-05-10T13:51:56;20.10;62.60
77277;DHT22;66330;52.166;9.978;2023-05-10T13:54:23;19.50;61.70
77277;DHT22;66330;52.166;9.978;2023-05-10T13:56:49;19.50;62.40
77277;DHT22;66330;52.166;9.978;2023-05-10T13:59:14;19.80;61.80
77277;DHT22;66330;52.166;9.978;2023-05-10T14:01:41;19.80;61.80
77277;DHT22;66330;52.166;9.978;2023-05-10T14:04:07;19.80;61.70
77277;DHT22;66330;52.166;9.978;2023-05-10T14:06:35;16.60;58.70
77277;DHT22;66330;52.166;9.978;2023-05-10T14:09:01;20.20;61.90
77277;DHT22;66330;52.166;9.978;2023-05-10T14:11:27;20.40;61.80
77277;DHT22;66330;52.166;9.978;2023-05-10T14:13:53;20.20;61.40
77277;DHT22;66330;52.166;9.978;2023-05-10T14:16:18;20.40;61.40
77277;DHT22;66330;52.166;9.978;2023-05-10T14:18:44;20.10;60.70
77277;DHT22;66330;52.166;9.978;2023-05-10T14:21:10;20.10;60.30
77277;DHT22;66330;52.166;9.978;2023-05-10T14:23:35;20.40;60.30
77277;DHT22;66330;52.166;9.978;2023-05-10T14:26:01;20.30;59.90
77277;DHT22;66330;52.166;9.978;2023-05-10T14:28:27;20.30;59.70
77277;DHT22;66330;52.166;9.978;2023-05-10T14:30:52;20.30;59.60
77277;DHT22;66330;52.166;9.978;2023-05-10T14:33:18;20.90;59.90
77277;DHT22;66330;52.166;9.978;2023-05-10T14:35:44;20.40;59.90
77277;DHT22;66330;52.166;9.978;2023-05-10T14:38:10;20.30;59.20
77277;DHT22;66330;52.166;9.978;2023-05-10T14:40:36;20.40;59.40
77277;DHT22;66330;52.166;9.978;2023-05-10T14:43:02;20.20;59.80
77277;DHT22;66330;52.166;9.978;2023-05-10T14:45:27;20.70;59.60
77277;DHT22;66330;52.166;9.978;2023-05-10T14:47:53;20.50;59.40
77277;DHT22;66330;52.166;9.978;2023-05-10T14:50:18;20.50;59.20
77277;DHT22;66330;52.166;9.978;2023-05-10T14:52:44;20.50;59.00
77277;DHT22;66330;52.166;9.978;2023-05-10T14:55:10;20.50;59.10
77277;DHT22;66330;52.166;9.978;2023-05-10T14:57:35;20.80;59.20
77277;DHT22;66330;52.166;9.978;2023-05-10T15:00:02;20.80;59.10
77277;DHT22;66330;52.166;9.978;2023-05-10T15:02:28;20.50;58.90
77277;DHT22;66330;52.166;9.978;2023-05-10T15:04:53;20.60;58.80
77277;DHT22;66330;52.166;9.978;2023-05-10T15:07:19;20.70;58.90
77277;DHT22;66330;52.166;9.978;2023-05-10T15:09:44;21.20;59.10
77277;DHT22;66330;52.166;9.978;2023-05-10T15:12:10;21.40;58.90
77277;DHT22;66330;52.166;9.978;2023-05-10T15:14:36;21.00;58.40
77277;DHT22;66330;52.166;9.978;2023-05-10T15:17:02;21.60;58.60
77277;DHT22;66330;52.166;9.978;2023-05-10T15:19:27;21.60;58.60
77277;DHT22;66330;52.166;9.978;2023-05-10T15:21:54;20.90;57.80
77277;DHT22;66330;52.166;9.978;2023-05-10T15:24:20;20.90;57.70
77277;DHT22;66330;52.166;9.978;2023-05-10T15:26:46;21.40;57.90
77277;DHT22;66330;52.166;9.978;2023-05-10T15:29:12;21.30;57.80
77277;DHT22;66330;52.166;9.978;2023-05-10T15:31:48;21.00;57.70
77277;DHT22;66330;52.166;9.978;2023-05-10T15:34:14;20.80;57.60
77277;DHT22;66330;52.166;9.978;2023-05-10T15:36:39;20.90;57.50
77277;DHT22;66330;52.166;9.978;2023-05-10T15:39:05;20.80;57.40
77277;DHT22;66330;52.166;9.978;2023-05-10T15:41:31;21.30;57.90
77277;DHT22;66330;52.166;9.978;2023-05-10T15:43:57;20.60;57.40
77277;DHT22;66330;52.166;9.978;2023-05-10T15:46:25;20.70;57.50
77277;DHT22;66330;52.166;9.978;2023-05-10T15:48:51;21.10;58.00
77277;DHT22;66330;52.166;9.978;2023-05-10T15:51:17;20.90;58.00
77277;DHT22;66330;52.166;9.978;2023-05-10T15:53:44;17.80;55.60
77277;DHT22;66330;52.166;9.978;2023-05-10T15:56:09;20.50;57.90
77277;DHT22;66330;52.166;9.978;2023-05-10T15:58:36;20.40;58.00
77277;DHT22;66330;52.166;9.978;2023-05-10T16:01:02;20.10;57.90
77277;DHT22;66330;52.166;9.978;2023-05-10T16:03:30;19.90;57.90
77277;DHT22;66330;52.166;9.978;2023-05-10T16:05:55;20.10;58.30